KMRC/MRC METAR and TAF weather

Enter ICAO airport designator
Station Type Date Time Source
KMRC METAR 2021/05/17 22:30 UTC NOAA

KMRC 172230Z AUTO 11004KT 10SM CLR 24/13 A3008 RMK A01


Station Type Date Time Source
KMRC Decoded METAR 2021/05/17 22:30 UTC NOAA

Columbia / Maury County, TN, United States (KMRC) 35-33N 087-11W
May 17, 2021 - 06:30 PM EDT / 2021.05.17 2230 UTC
Wind: from the ESE (110 degrees) at 5 MPH (4 KT):0
Visibility: 10 mile(s):0
Sky conditions: clear
Temperature: 75 F (24 C)
Dew Point: 55 F (13 C)
Relative Humidity: 50%
Pressure (altimeter): 30.08 in. Hg (1018 hPa)
ob: KMRC 172230Z AUTO 11004KT 10SM CLR 24/13 A3008 RMK A01
cycle: 22

Station Type Date Time Source
KMRC TAF 2009/08/31 19:45 UTC NOAA

METAR KMRC 311945Z AUTO 06008KT 10SM CLR 26/12 A3010
RMK AO1 T02550116 $

Example: see airport list